Time;durP1;ratioP1;P1;durP2;ratioP2;P2;SDS_P1;SDS_P2;PMS_P1;PMS_P2;Temp;Humidity;BMP_temperature;BMP_pressure;BME280_temperature;BME280_humidity;BME280_pressure;Samples;Min_cycle;Max_cycle;Signal;HPM_P1;HPM_P2
2022/12/01 00:00:33;;;;;;;3.92;3.05;;;;;;;;;;5053585;28;20025;-43
2022/12/01 00:02:59;;;;;;;5.47;3.47;;;;;;;;;;5052399;28;20048;-43
2022/12/01 00:05:25;;;;;;;7.72;4.07;;;;;;;;;;5048630;28;20068;-43
2022/12/01 00:07:51;;;;;;;4.55;3.22;;;;;;;;;;5057405;28;20025;-43
2022/12/01 00:10:26;;;;;;;4.82;3.28;;;;;;;;;;5048874;28;20033;-43
2022/12/01 00:12:53;;;;;;;5.72;3.70;;;;;;;;;;5052079;28;20056;-43
2022/12/01 00:15:19;;;;;;;5.60;3.28;;;;;;;;;;5053525;28;20025;-43
2022/12/01 00:17:46;;;;;;;5.63;3.35;;;;;;;;;;5052035;28;20029;-43
2022/12/01 00:20:13;;;;;;;5.03;3.45;;;;;;;;;;5045226;28;20021;-43
2022/12/01 00:22:42;;;;;;;4.25;3.03;;;;;;;;;;5050724;28;20029;-46
2022/12/01 00:25:08;;;;;;;5.68;3.95;;;;;;;;;;5062902;28;20025;-43
2022/12/01 00:27:34;;;;;;;5.28;3.60;;;;;;;;;;5052496;28;20355;-43
2022/12/01 00:30:00;;;;;;;6.80;3.45;;;;;;;;;;5050080;28;20029;-43
2022/12/01 00:32:26;;;;;;;4.93;3.40;;;;;;;;;;5051123;28;20029;-43
2022/12/01 00:34:51;;;;;;;4.95;3.25;;;;;;;;;;5051231;28;20451;-43
2022/12/01 00:37:17;;;;;;;4.82;3.13;;;;;;;;;;5051633;28;20079;-43
2022/12/01 00:39:43;;;;;;;4.00;3.08;;;;;;;;;;5051006;28;20033;-43
2022/12/01 00:42:09;;;;;;;5.15;3.28;;;;;;;;;;5053108;28;20032;-43
2022/12/01 00:44:35;;;;;;;4.50;3.17;;;;;;;;;;5056397;28;20021;-43
2022/12/01 00:47:01;;;;;;;8.25;4.10;;;;;;;;;;5076149;28;20046;-43
2022/12/01 00:49:27;;;;;;;4.25;3.05;;;;;;;;;;5086980;28;20085;-43
2022/12/01 00:51:53;;;;;;;4.97;4.00;;;;;;;;;;5091755;28;20051;-43
2022/12/01 00:54:19;;;;;;;4.30;3.08;;;;;;;;;;5092947;28;20038;-43
2022/12/01 00:56:45;;;;;;;5.43;3.33;;;;;;;;;;5090461;28;20016;-43
2022/12/01 00:59:12;;;;;;;4.55;3.38;;;;;;;;;;5077147;28;20020;-43
2022/12/01 01:01:38;;;;;;;5.07;3.58;;;;;;;;;;5090374;28;20576;-43
2022/12/01 01:04:04;;;;;;;5.15;3.80;;;;;;;;;;5089618;28;20103;-43
2022/12/01 01:06:30;;;;;;;4.85;3.55;;;;;;;;;;5069405;28;20419;-43
2022/12/01 01:08:56;;;;;;;4.47;3.40;;;;;;;;;;5090989;28;20036;-43
2022/12/01 01:11:22;;;;;;;4.38;3.05;;;;;;;;;;5081490;28;20028;-43
2022/12/01 01:13:48;;;;;;;4.72;3.53;;;;;;;;;;5090422;28;20111;-43
2022/12/01 01:16:15;;;;;;;4.82;3.28;;;;;;;;;;5093087;28;20393;-43
2022/12/01 01:18:41;;;;;;;5.20;3.33;;;;;;;;;;5099332;28;20361;-45
2022/12/01 01:21:08;;;;;;;5.55;3.45;;;;;;;;;;5091803;28;20051;-43
2022/12/01 01:23:34;;;;;;;4.07;3.28;;;;;;;;;;5087591;28;20020;-43
2022/12/01 01:26:02;;;;;;;5.32;4.07;;;;;;;;;;5074452;28;20464;-43
2022/12/01 01:28:27;;;;;;;5.10;3.70;;;;;;;;;;5091367;28;20027;-43
2022/12/01 01:30:53;;;;;;;5.63;4.20;;;;;;;;;;5089765;28;20028;-44
2022/12/01 01:33:19;;;;;;;4.57;3.08;;;;;;;;;;5088200;28;20027;-43
2022/12/01 01:35:45;;;;;;;5.38;3.63;;;;;;;;;;5087323;28;20036;-46
2022/12/01 01:38:11;;;;;;;4.70;3.28;;;;;;;;;;5084367;28;20024;-43
2022/12/01 01:40:44;;;;;;;5.07;3.30;;;;;;;;;;5092367;28;20051;-43
2022/12/01 01:43:13;;;;;;;5.13;3.38;;;;;;;;;;5091466;28;20024;-43
2022/12/01 01:45:39;;;;;;;4.70;3.50;;;;;;;;;;5090809;28;20020;-44
2022/12/01 01:48:06;;;;;;;5.50;3.38;;;;;;;;;;5090545;28;20495;-43
2022/12/01 01:50:32;;;;;;;5.20;3.88;;;;;;;;;;5091691;28;20104;-43
2022/12/01 01:53:04;;;;;;;4.93;3.95;;;;;;;;;;5087785;28;20496;-43
2022/12/01 01:55:31;;;;;;;4.43;3.17;;;;;;;;;;5090788;28;20384;-44
2022/12/01 01:57:57;;;;;;;4.97;3.53;;;;;;;;;;5081881;28;20017;-43
2022/12/01 02:00:23;;;;;;;4.72;3.30;;;;;;;;;;5089105;28;20160;-43
2022/12/01 02:02:50;;;;;;;4.75;3.92;;;;;;;;;;5076680;28;20032;-43
2022/12/01 02:05:21;;;;;;;6.28;3.63;;;;;;;;;;5088336;28;20032;-43
2022/12/01 02:07:47;;;;;;;4.80;3.47;;;;;;;;;;5090305;28;20057;-43
2022/12/01 02:10:14;;;;;;;5.13;3.40;;;;;;;;;;5087486;28;20032;-43
2022/12/01 02:12:40;;;;;;;4.93;3.22;;;;;;;;;;5090042;28;20536;-43
2022/12/01 02:15:06;;;;;;;5.35;3.60;;;;;;;;;;5087712;28;20094;-44
2022/12/01 02:17:44;;;;;;;5.63;3.40;;;;;;;;;;5088597;28;20024;-43
2022/12/01 02:20:22;;;;;;;4.13;3.05;;;;;;;;;;5095572;28;20035;-43
2022/12/01 02:23:06;;;;;;;4.78;3.58;;;;;;;;;;5090286;28;20389;-43
2022/12/01 02:25:35;;;;;;;4.70;3.58;;;;;;;;;;5088172;28;20500;-43
2022/12/01 02:28:04;;;;;;;4.85;3.50;;;;;;;;;;5090188;28;20047;-43
2022/12/01 02:30:39;;;;;;;5.82;3.95;;;;;;;;;;5087168;28;20031;-43
2022/12/01 02:33:17;;;;;;;4.60;3.22;;;;;;;;;;5085789;28;20055;-43
2022/12/01 02:35:47;;;;;;;4.20;3.08;;;;;;;;;;5089520;28;20104;-46
2022/12/01 02:38:13;;;;;;;4.28;3.13;;;;;;;;;;5089044;28;20028;-43
2022/12/01 02:40:51;;;;;;;4.35;3.13;;;;;;;;;;5084370;28;20038;-43
2022/12/01 02:43:28;;;;;;;7.30;2.90;;;;;;;;;;5085209;28;20029;-43
2022/12/01 02:45:59;;;;;;;5.43;3.60;;;;;;;;;;5085452;28;20083;-42
2022/12/01 02:48:30;;;;;;;5.10;3.55;;;;;;;;;;5069715;28;20024;-43
2022/12/01 02:50:58;;;;;;;5.95;3.40;;;;;;;;;;5069440;28;20382;-43
2022/12/01 02:53:24;;;;;;;4.25;3.05;;;;;;;;;;5071216;28;20028;-43
2022/12/01 02:55:54;;;;;;;4.90;3.75;;;;;;;;;;5069578;28;20020;-43
2022/12/01 02:58:21;;;;;;;4.63;3.15;;;;;;;;;;5071622;28;20039;-43
2022/12/01 03:01:10;;;;;;;4.93;3.53;;;;;;;;;;5081130;28;20020;-47
2022/12/01 03:03:54;;;;;;;5.57;4.03;;;;;;;;;;5053840;28;20040;-43
2022/12/01 03:06:26;;;;;;;4.55;3.28;;;;;;;;;;5074704;28;20377;-43
2022/12/01 03:09:12;;;;;;;3.60;2.80;;;;;;;;;;5073782;28;20021;-43
2022/12/01 03:11:43;;;;;;;4.55;3.17;;;;;;;;;;5067574;28;20081;-43
2022/12/01 03:14:30;;;;;;;4.05;3.33;;;;;;;;;;5074326;28;20025;-43
2022/12/01 03:16:58;;;;;;;4.35;3.08;;;;;;;;;;5078958;28;20032;-43
2022/12/01 03:19:36;;;;;;;4.85;3.50;;;;;;;;;;5080240;28;20488;-43
2022/12/01 03:22:09;;;;;;;4.95;3.33;;;;;;;;;;5073499;28;20107;-42
2022/12/01 03:24:36;;;;;;;4.90;3.53;;;;;;;;;;5074714;28;20024;-43
2022/12/01 03:27:03;;;;;;;4.97;3.70;;;;;;;;;;5073338;28;20162;-43
2022/12/01 03:29:42;;;;;;;4.38;3.42;;;;;;;;;;5072179;28;20112;-43
2022/12/01 03:32:11;;;;;;;4.95;3.58;;;;;;;;;;5073490;28;20110;-43
2022/12/01 03:34:48;;;;;;;5.47;3.53;;;;;;;;;;5079452;28;20027;-43
2022/12/01 03:37:25;;;;;;;4.13;3.25;;;;;;;;;;5073869;28;20465;-43
2022/12/01 03:39:55;;;;;;;4.97;3.47;;;;;;;;;;5073289;28;20033;-43
2022/12/01 03:42:39;;;;;;;4.70;3.38;;;;;;;;;;5073891;28;20025;-43
2022/12/01 03:45:07;;;;;;;4.93;3.80;;;;;;;;;;5073320;28;20081;-43
2022/12/01 03:47:36;;;;;;;4.80;3.38;;;;;;;;;;5089262;28;20040;-43
2022/12/01 03:50:03;;;;;;;6.53;3.88;;;;;;;;;;5091877;28;20477;-43
2022/12/01 03:52:48;;;;;;;5.07;3.60;;;;;;;;;;5093624;28;20059;-43
2022/12/01 03:55:23;;;;;;;5.03;3.25;;;;;;;;;;5094304;28;20046;-42
2022/12/01 03:57:56;;;;;;;5.10;3.65;;;;;;;;;;5091180;28;20020;-43
2022/12/01 04:00:22;;;;;;;5.18;3.85;;;;;;;;;;5087165;28;20035;-43
2022/12/01 04:02:53;;;;;;;4.95;3.08;;;;;;;;;;5092500;28;20043;-46
2022/12/01 04:05:19;;;;;;;5.20;3.80;;;;;;;;;;5094149;28;20020;-43
2022/12/01 04:07:45;;;;;;;4.65;3.42;;;;;;;;;;5093002;28;20051;-46
2022/12/01 04:10:11;;;;;;;4.43;3.58;;;;;;;;;;5082533;28;20028;-43
2022/12/01 04:12:37;;;;;;;5.53;3.78;;;;;;;;;;5088706;28;20032;-43
2022/12/01 04:15:04;;;;;;;5.75;3.92;;;;;;;;;;5092988;28;20043;-43
2022/12/01 04:17:30;;;;;;;5.32;3.65;;;;;;;;;;5093506;28;20020;-43
2022/12/01 04:19:57;;;;;;;4.85;3.33;;;;;;;;;;5099425;28;20043;-43
2022/12/01 04:22:23;;;;;;;4.25;3.67;;;;;;;;;;5088841;28;20020;-43
2022/12/01 04:24:49;;;;;;;4.82;3.55;;;;;;;;;;5097709;28;20032;-43
2022/12/01 04:27:15;;;;;;;4.10;3.40;;;;;;;;;;5092966;28;20093;-43
2022/12/01 04:29:41;;;;;;;4.72;3.47;;;;;;;;;;5093391;28;20480;-43
2022/12/01 04:32:07;;;;;;;4.88;3.67;;;;;;;;;;5080875;28;20032;-43
2022/12/01 04:34:33;;;;;;;5.30;4.03;;;;;;;;;;5093484;28;20020;-43
2022/12/01 04:36:59;;;;;;;5.50;4.10;;;;;;;;;;5092360;28;20419;-43
2022/12/01 04:39:25;;;;;;;5.30;4.18;;;;;;;;;;5095155;28;20036;-43
2022/12/01 04:41:51;;;;;;;4.85;3.53;;;;;;;;;;5092023;28;20028;-43
2022/12/01 04:44:17;;;;;;;4.95;3.63;;;;;;;;;;5093122;28;20373;-43
2022/12/01 04:46:43;;;;;;;4.55;3.50;;;;;;;;;;5071462;28;20049;-43
2022/12/01 04:49:09;;;;;;;4.60;3.70;;;;;;;;;;5072161;28;20043;-43
2022/12/01 04:51:35;;;;;;;4.68;3.70;;;;;;;;;;5072266;28;20020;-43
2022/12/01 04:54:02;;;;;;;4.25;3.17;;;;;;;;;;5102710;28;20036;-43
2022/12/01 04:56:28;;;;;;;5.13;3.85;;;;;;;;;;5071810;28;20039;-43
2022/12/01 04:58:54;;;;;;;6.22;3.80;;;;;;;;;;5071935;28;20028;-43
2022/12/01 05:01:20;;;;;;;4.95;3.40;;;;;;;;;;5072474;28;20025;-44
2022/12/01 05:03:50;;;;;;;4.45;3.53;;;;;;;;;;5071962;28;20040;-46
2022/12/01 05:06:21;;;;;;;5.45;3.90;;;;;;;;;;5072652;28;20029;-43
2022/12/01 05:08:47;;;;;;;5.05;3.58;;;;;;;;;;5071806;28;20033;-46
2022/12/01 05:11:13;;;;;;;4.40;3.42;;;;;;;;;;5061815;28;20028;-43
2022/12/01 05:13:40;;;;;;;5.30;3.75;;;;;;;;;;5073651;28;20485;-43
2022/12/01 05:16:07;;;;;;;5.22;3.92;;;;;;;;;;5071269;28;20021;-43
2022/12/01 05:18:33;;;;;;;5.30;3.30;;;;;;;;;;5078195;28;20072;-43
2022/12/01 05:21:00;;;;;;;4.07;3.15;;;;;;;;;;5070425;28;20428;-43
2022/12/01 05:23:30;;;;;;;5.03;3.60;;;;;;;;;;5070562;28;20028;-43
2022/12/01 05:25:56;;;;;;;3.97;3.22;;;;;;;;;;5071150;28;20060;-43
2022/12/01 05:28:23;;;;;;;4.35;3.22;;;;;;;;;;5071812;28;20048;-43
2022/12/01 05:30:49;;;;;;;5.05;3.60;;;;;;;;;;5068476;28;20020;-46
2022/12/01 05:33:16;;;;;;;5.07;3.65;;;;;;;;;;5072047;28;20100;-43
2022/12/01 05:35:42;;;;;;;4.68;3.45;;;;;;;;;;5072041;28;20017;-43
2022/12/01 05:38:08;;;;;;;5.20;3.42;;;;;;;;;;5070789;28;20021;-43
2022/12/01 05:40:34;;;;;;;5.38;3.65;;;;;;;;;;5071967;28;20477;-43
2022/12/01 05:43:00;;;;;;;5.72;3.55;;;;;;;;;;5070939;28;20054;-43
2022/12/01 05:45:26;;;;;;;4.63;3.53;;;;;;;;;;5071901;28;20158;-43
2022/12/01 05:47:56;;;;;;;4.70;3.50;;;;;;;;;;5065295;28;20049;-43
2022/12/01 05:50:23;;;;;;;4.68;3.83;;;;;;;;;;5078575;28;20032;-43
2022/12/01 05:52:49;;;;;;;4.82;3.63;;;;;;;;;;5070213;28;20354;-43
2022/12/01 05:55:15;;;;;;;5.35;3.83;;;;;;;;;;5071974;28;20027;-43
2022/12/01 05:57:41;;;;;;;4.90;3.75;;;;;;;;;;5071164;28;20366;-44
2022/12/01 06:00:07;;;;;;;5.13;3.67;;;;;;;;;;5069776;28;20111;-43
2022/12/01 06:02:33;;;;;;;5.43;3.88;;;;;;;;;;5069390;28;20517;-43
2022/12/01 06:04:59;;;;;;;4.93;3.22;;;;;;;;;;5069108;28;20123;-43
2022/12/01 06:07:25;;;;;;;4.10;3.35;;;;;;;;;;5072523;28;20047;-43
2022/12/01 06:09:52;;;;;;;5.82;3.70;;;;;;;;;;5062948;28;20029;-43
2022/12/01 06:12:18;;;;;;;4.13;3.50;;;;;;;;;;5070092;28;20029;-43
2022/12/01 06:14:44;;;;;;;4.63;3.42;;;;;;;;;;5071258;28;20045;-46
2022/12/01 06:17:11;;;;;;;4.45;3.70;;;;;;;;;;5070782;28;20020;-43
2022/12/01 06:19:38;;;;;;;6.00;4.28;;;;;;;;;;5068618;28;20044;-43
2022/12/01 06:22:04;;;;;;;4.95;3.63;;;;;;;;;;5069299;28;20020;-43
2022/12/01 06:24:30;;;;;;;4.47;3.30;;;;;;;;;;5079007;28;20027;-43
2022/12/01 06:26:56;;;;;;;4.50;3.60;;;;;;;;;;5069746;28;20095;-43
2022/12/01 06:29:22;;;;;;;5.05;3.45;;;;;;;;;;5071578;28;20033;-43
2022/12/01 06:31:47;;;;;;;5.60;4.40;;;;;;;;;;5070152;28;20115;-46
2022/12/01 06:34:13;;;;;;;5.30;3.78;;;;;;;;;;5075559;28;20017;-43
2022/12/01 06:36:39;;;;;;;5.75;4.10;;;;;;;;;;5067204;28;20025;-43
2022/12/01 06:39:08;;;;;;;4.95;3.78;;;;;;;;;;5073503;28;20059;-42
2022/12/01 06:41:34;;;;;;;8.05;3.70;;;;;;;;;;5074765;28;20485;-44
2022/12/01 06:44:00;;;;;;;6.60;4.22;;;;;;;;;;5074362;28;20473;-43
2022/12/01 06:46:27;;;;;;;6.03;3.45;;;;;;;;;;5071046;28;20465;-44
2022/12/01 06:48:53;;;;;;;5.65;3.55;;;;;;;;;;5073347;27;20052;-43
2022/12/01 06:51:19;;;;;;;5.93;4.20;;;;;;;;;;5074330;28;20032;-42
2022/12/01 06:53:45;;;;;;;6.53;3.80;;;;;;;;;;5080653;28;20358;-46
2022/12/01 06:56:11;;;;;;;7.60;3.70;;;;;;;;;;5075480;28;20024;-42
2022/12/01 06:58:37;;;;;;;8.73;4.32;;;;;;;;;;5074674;28;20028;-43
2022/12/01 07:01:12;;;;;;;9.38;3.40;;;;;;;;;;5073699;28;20107;-44
2022/12/01 07:03:38;;;;;;;4.65;3.47;;;;;;;;;;5073081;28;20078;-45
2022/12/01 07:06:05;;;;;;;5.45;4.07;;;;;;;;;;5073622;28;20035;-43
2022/12/01 07:08:32;;;;;;;10.05;4.28;;;;;;;;;;5062370;28;20032;-44
2022/12/01 07:10:58;;;;;;;5.82;4.30;;;;;;;;;;5064616;28;20024;-44
2022/12/01 07:13:24;;;;;;;5.88;3.88;;;;;;;;;;5064868;28;20032;-46
2022/12/01 07:15:50;;;;;;;7.93;3.95;;;;;;;;;;5071381;28;20090;-44
2022/12/01 07:18:16;;;;;;;8.60;4.38;;;;;;;;;;5069810;28;20016;-44
2022/12/01 07:20:42;;;;;;;7.25;3.30;;;;;;;;;;5074458;28;20074;-44
2022/12/01 07:23:08;;;;;;;5.20;3.45;;;;;;;;;;5072819;28;20062;-44
2022/12/01 07:25:34;;;;;;;7.75;4.07;;;;;;;;;;5070939;28;20021;-44
2022/12/01 07:28:00;;;;;;;6.88;3.70;;;;;;;;;;5066876;28;20021;-44
2022/12/01 07:30:26;;;;;;;7.90;3.50;;;;;;;;;;5073109;28;20100;-46
2022/12/01 07:32:52;;;;;;;5.38;3.60;;;;;;;;;;5072676;28;20120;-44
2022/12/01 07:35:19;;;;;;;8.82;4.45;;;;;;;;;;5074052;28;20024;-44
2022/12/01 07:37:45;;;;;;;7.25;4.80;;;;;;;;;;5073753;28;20019;-47
2022/12/01 07:40:11;;;;;;;19.08;11.73;;;;;;;;;;5071924;28;20032;-45
2022/12/01 07:42:40;;;;;;;16.90;11.50;;;;;;;;;;5068077;28;20024;-44
2022/12/01 07:45:06;;;;;;;17.65;11.82;;;;;;;;;;5071622;28;20621;-45
2022/12/01 07:47:32;;;;;;;17.67;11.07;;;;;;;;;;5072461;28;20048;-44
2022/12/01 07:49:58;;;;;;;13.82;10.20;;;;;;;;;;5072328;28;20117;-44
2022/12/01 07:52:24;;;;;;;16.17;10.70;;;;;;;;;;5072638;28;20060;-45
2022/12/01 07:54:51;;;;;;;13.27;8.57;;;;;;;;;;5072768;28;20028;-45
2022/12/01 07:57:19;;;;;;;11.18;7.25;;;;;;;;;;5072313;28;20106;-45
2022/12/01 07:59:45;;;;;;;15.15;8.20;;;;;;;;;;5065440;28;20538;-47
2022/12/01 08:02:11;;;;;;;12.93;8.13;;;;;;;;;;5071807;28;20107;-46
2022/12/01 08:04:37;;;;;;;11.30;7.70;;;;;;;;;;5068990;28;20208;-44
2022/12/01 08:07:03;;;;;;;12.10;7.15;;;;;;;;;;5073140;28;20025;-44
2022/12/01 08:09:29;;;;;;;10.50;7.57;;;;;;;;;;5067954;28;20045;-44
2022/12/01 08:11:55;;;;;;;10.93;7.40;;;;;;;;;;5069147;28;20386;-46
2022/12/01 08:14:21;;;;;;;10.05;7.00;;;;;;;;;;5059972;28;20021;-45
2022/12/01 08:16:47;;;;;;;9.38;6.07;;;;;;;;;;5071249;28;20521;-47
2022/12/01 08:19:13;;;;;;;8.23;5.80;;;;;;;;;;5072839;28;20029;-44
2022/12/01 08:21:39;;;;;;;8.02;5.63;;;;;;;;;;5071708;28;20032;-44
2022/12/01 08:24:06;;;;;;;7.57;5.45;;;;;;;;;;5071869;28;20009;-45
2022/12/01 08:26:32;;;;;;;7.18;5.07;;;;;;;;;;5072298;28;20470;-44
2022/12/01 08:28:58;;;;;;;7.65;4.97;;;;;;;;;;5069161;28;20047;-45
2022/12/01 08:31:26;;;;;;;9.18;6.32;;;;;;;;;;5071592;28;20024;-46
2022/12/01 08:33:52;;;;;;;7.70;5.28;;;;;;;;;;5071357;28;20376;-44
2022/12/01 08:36:19;;;;;;;7.03;5.03;;;;;;;;;;5071993;28;20021;-44
2022/12/01 08:38:46;;;;;;;7.88;5.78;;;;;;;;;;5072221;28;20377;-47
2022/12/01 08:41:13;;;;;;;9.10;5.53;;;;;;;;;;5069651;28;20104;-44
2022/12/01 08:43:41;;;;;;;8.68;5.68;;;;;;;;;;5072293;28;20024;-44
2022/12/01 08:46:07;;;;;;;7.22;5.05;;;;;;;;;;5070738;28;20492;-45
2022/12/01 08:48:34;;;;;;;7.50;5.10;;;;;;;;;;5071335;28;20106;-44
2022/12/01 08:51:01;;;;;;;8.35;4.97;;;;;;;;;;5071085;28;20059;-44
2022/12/01 08:53:27;;;;;;;7.05;5.38;;;;;;;;;;5071901;28;20474;-45
2022/12/01 08:55:53;;;;;;;6.97;5.05;;;;;;;;;;5072828;28;20106;-44
2022/12/01 08:58:19;;;;;;;6.53;4.78;;;;;;;;;;5061021;28;20099;-45
2022/12/01 09:00:45;;;;;;;6.40;4.50;;;;;;;;;;5071728;28;20047;-47
2022/12/01 09:03:11;;;;;;;6.55;5.03;;;;;;;;;;5068788;28;20082;-44
2022/12/01 09:05:37;;;;;;;6.72;4.95;;;;;;;;;;5065665;28;20025;-45
2022/12/01 09:08:36;;;;;;;6.57;4.28;;;;;;;;;;5067581;28;20465;-45
2022/12/01 09:10:55;;;;;;;7.22;4.53;;;;;;;;;;5065714;28;20579;-45
2022/12/01 09:13:21;;;;;;;6.22;4.57;;;;;;;;;;5071615;28;20100;-45
2022/12/01 09:15:54;;;;;;;6.85;4.40;;;;;;;;;;5070799;28;20182;-47
2022/12/01 09:18:20;;;;;;;7.15;4.63;;;;;;;;;;5071584;28;20122;-45
2022/12/01 09:20:46;;;;;;;6.63;4.57;;;;;;;;;;5071304;28;20074;-47
2022/12/01 09:23:12;;;;;;;5.57;3.92;;;;;;;;;;5069937;28;20052;-46
2022/12/01 09:25:38;;;;;;;6.40;4.28;;;;;;;;;;5061006;28;20478;-45
2022/12/01 09:28:04;;;;;;;7.03;4.95;;;;;;;;;;5068265;28;20025;-45
2022/12/01 09:30:30;;;;;;;5.53;4.13;;;;;;;;;;5071343;28;20025;-45
2022/12/01 09:32:56;;;;;;;6.03;4.25;;;;;;;;;;5070419;28;20025;-45
2022/12/01 09:35:22;;;;;;;6.05;4.50;;;;;;;;;;5070081;28;20103;-45
2022/12/01 09:37:48;;;;;;;6.38;3.75;;;;;;;;;;5055023;28;20032;-48
2022/12/01 09:40:15;;;;;;;5.72;3.65;;;;;;;;;;5065792;28;20097;-44
2022/12/01 09:42:41;;;;;;;7.20;4.65;;;;;;;;;;5063773;28;20028;-44
2022/12/01 09:45:11;;;;;;;6.35;4.50;;;;;;;;;;5070121;28;20024;-45
2022/12/01 09:47:38;;;;;;;5.45;3.90;;;;;;;;;;5069956;28;20048;-45
2022/12/01 09:50:09;;;;;;;5.57;4.45;;;;;;;;;;5068172;28;20036;-44
2022/12/01 09:52:52;;;;;;;7.32;4.45;;;;;;;;;;5070693;28;20036;-44
2022/12/01 09:55:20;;;;;;;4.78;3.65;;;;;;;;;;5060063;28;20021;-45
2022/12/01 09:57:47;;;;;;;9.45;4.45;;;;;;;;;;5068530;28;20021;-49
2022/12/01 10:00:15;;;;;;;6.57;4.18;;;;;;;;;;5071235;28;20020;-47
2022/12/01 10:02:44;;;;;;;7.53;4.15;;;;;;;;;;5070773;28;20060;-44
2022/12/01 10:05:24;;;;;;;5.93;4.38;;;;;;;;;;5070800;28;20027;-45
2022/12/01 10:07:54;;;;;;;6.93;4.65;;;;;;;;;;5069664;28;20096;-46
2022/12/01 10:10:28;;;;;;;7.35;4.97;;;;;;;;;;5065838;28;20035;-45
2022/12/01 10:12:54;;;;;;;7.18;4.65;;;;;;;;;;5070127;28;20108;-45
2022/12/01 10:15:39;;;;;;;5.90;4.20;;;;;;;;;;5067299;28;20088;-45
2022/12/01 10:18:23;;;;;;;4.65;3.55;;;;;;;;;;5069777;28;20167;-45
2022/12/01 10:21:01;;;;;;;6.88;4.47;;;;;;;;;;5070110;28;20067;-47
2022/12/01 10:23:27;;;;;;;6.18;4.72;;;;;;;;;;5071078;28;20072;-44
2022/12/01 10:26:02;;;;;;;5.57;3.92;;;;;;;;;;5060659;28;20126;-45
2022/12/01 10:28:31;;;;;;;4.50;3.70;;;;;;;;;;5068170;28;20025;-44
2022/12/01 10:31:03;;;;;;;6.05;3.75;;;;;;;;;;5064811;28;20402;-46
2022/12/01 10:33:33;;;;;;;5.27;4.07;;;;;;;;;;5066501;28;20028;-45
2022/12/01 10:35:58;;;;;;;6.10;3.95;;;;;;;;;;5069402;28;20035;-45
2022/12/01 10:38:26;;;;;;;7.18;4.45;;;;;;;;;;5070834;28;20471;-45
2022/12/01 10:40:53;;;;;;;6.78;4.43;;;;;;;;;;5069614;28;20126;-45
2022/12/01 10:43:22;;;;;;;5.22;3.90;;;;;;;;;;5058417;28;20025;-45
2022/12/01 10:45:48;;;;;;;7.15;3.97;;;;;;;;;;5068581;28;20032;-47
2022/12/01 10:48:19;;;;;;;6.15;4.32;;;;;;;;;;5069092;28;20064;-44
2022/12/01 10:50:46;;;;;;;5.20;4.10;;;;;;;;;;5070270;28;20107;-48
2022/12/01 10:53:27;;;;;;;5.72;4.03;;;;;;;;;;5069904;28;20075;-44
2022/12/01 10:56:12;;;;;;;5.57;3.67;;;;;;;;;;5087131;28;20051;-45
2022/12/01 10:58:45;;;;;;;5.63;3.72;;;;;;;;;;5061471;28;20024;-44
2022/12/01 11:01:15;;;;;;;5.93;4.32;;;;;;;;;;5080735;28;20016;-43
2022/12/01 11:03:42;;;;;;;7.20;4.38;;;;;;;;;;5090729;28;20101;-43
2022/12/01 11:06:08;;;;;;;6.82;4.32;;;;;;;;;;5070759;28;20607;-43
2022/12/01 11:08:43;;;;;;;6.10;4.18;;;;;;;;;;5084880;28;20034;-42
2022/12/01 11:11:27;;;;;;;8.13;4.15;;;;;;;;;;5079950;28;20029;-43
2022/12/01 11:13:53;;;;;;;27.10;5.72;;;;;;;;;;5089581;28;20032;-43
2022/12/01 11:16:36;;;;;;;5.78;4.13;;;;;;;;;;5090283;28;20027;-43
2022/12/01 11:19:18;;;;;;;8.88;4.45;;;;;;;;;;5095031;28;20035;-43
2022/12/01 11:21:46;;;;;;;6.45;3.65;;;;;;;;;;5092772;28;20024;-43
2022/12/01 11:24:22;;;;;;;12.63;4.75;;;;;;;;;;5094416;28;20020;-44
2022/12/01 11:26:48;;;;;;;17.25;5.43;;;;;;;;;;5093920;28;20047;-48
2022/12/01 11:29:35;;;;;;;17.27;6.22;;;;;;;;;;5094144;28;20510;-45
2022/12/01 11:32:01;;;;;;;14.25;6.68;;;;;;;;;;5082917;28;20028;-45
2022/12/01 11:34:33;;;;;;;17.63;7.95;;;;;;;;;;5094095;28;20035;-45
2022/12/01 11:37:00;;;;;;;21.80;9.95;;;;;;;;;;5086311;28;20028;-43
2022/12/01 11:39:31;;;;;;;18.05;8.93;;;;;;;;;;5085417;28;20384;-44
2022/12/01 11:41:59;;;;;;;17.50;8.63;;;;;;;;;;5092293;28;20035;-43
2022/12/01 11:44:26;;;;;;;18.83;9.48;;;;;;;;;;5092324;28;20020;-43
2022/12/01 11:46:51;;;;;;;15.30;9.32;;;;;;;;;;5092731;28;20060;-43
2022/12/01 11:49:20;;;;;;;18.45;9.75;;;;;;;;;;5093213;28;20083;-43
2022/12/01 11:51:46;;;;;;;17.35;9.38;;;;;;;;;;5093025;28;20338;-46
2022/12/01 11:54:14;;;;;;;16.73;8.23;;;;;;;;;;5093729;28;20132;-43
2022/12/01 11:56:40;;;;;;;14.70;9.00;;;;;;;;;;5090976;28;20111;-43
2022/12/01 11:59:11;;;;;;;14.00;8.93;;;;;;;;;;5087200;28;20054;-44
2022/12/01 12:01:46;;;;;;;14.57;7.97;;;;;;;;;;5093366;28;20024;-43
2022/12/01 12:04:31;;;;;;;14.77;7.97;;;;;;;;;;5092330;28;20606;-43
2022/12/01 12:07:06;;;;;;;15.05;9.35;;;;;;;;;;5092372;28;20028;-43
2022/12/01 12:09:32;;;;;;;14.38;8.35;;;;;;;;;;5088383;28;20347;-43
2022/12/01 12:12:20;;;;;;;16.70;9.23;;;;;;;;;;5088864;28;20031;-43
2022/12/01 12:15:00;;;;;;;13.43;6.82;;;;;;;;;;5092394;28;20023;-46
2022/12/01 12:17:38;;;;;;;15.50;7.90;;;;;;;;;;5091154;28;20031;-43
2022/12/01 12:20:20;;;;;;;13.43;7.93;;;;;;;;;;5090404;28;20028;-43
2022/12/01 12:22:58;;;;;;;11.32;7.07;;;;;;;;;;5092361;28;20024;-48
2022/12/01 12:25:43;;;;;;;9.65;6.35;;;;;;;;;;5092643;28;20123;-46
2022/12/01 12:28:19;;;;;;;16.38;7.40;;;;;;;;;;5091328;28;20148;-43
2022/12/01 12:30:54;;;;;;;13.15;7.43;;;;;;;;;;5091114;28;20035;-46
2022/12/01 12:33:28;;;;;;;13.20;7.13;;;;;;;;;;5089087;28;20028;-43
2022/12/01 12:36:07;;;;;;;11.85;6.32;;;;;;;;;;5086545;28;20053;-45
2022/12/01 12:38:47;;;;;;;10.98;6.63;;;;;;;;;;5087260;28;20039;-45
2022/12/01 12:41:18;;;;;;;11.23;5.82;;;;;;;;;;5088674;28;20048;-45
2022/12/01 12:44:03;;;;;;;11.35;6.20;;;;;;;;;;5091934;28;20028;-47
2022/12/01 12:46:35;;;;;;;10.57;6.78;;;;;;;;;;5081540;28;20043;-45
2022/12/01 12:49:19;;;;;;;11.10;7.07;;;;;;;;;;5081435;28;20052;-45
2022/12/01 12:52:04;;;;;;;9.82;5.68;;;;;;;;;;5091785;28;20103;-48
2022/12/01 12:54:30;;;;;;;10.05;5.93;;;;;;;;;;5090036;28;20095;-45
2022/12/01 12:57:01;;;;;;;9.98;7.20;;;;;;;;;;5091333;28;20532;-45
2022/12/01 12:59:31;;;;;;;12.18;6.05;;;;;;;;;;5092080;28;20028;-44
2022/12/01 13:02:00;;;;;;;9.80;5.40;;;;;;;;;;5092001;28;20067;-46
2022/12/01 13:04:45;;;;;;;9.55;5.80;;;;;;;;;;5088503;28;20031;-45
2022/12/01 13:07:29;;;;;;;10.48;5.57;;;;;;;;;;5091780;28;20024;-45
2022/12/01 13:09:58;;;;;;;13.50;5.85;;;;;;;;;;5083160;28;20108;-45
2022/12/01 13:12:28;;;;;;;9.68;6.10;;;;;;;;;;5091668;28;20054;-45
2022/12/01 13:14:56;;;;;;;7.85;4.82;;;;;;;;;;5091491;28;20095;-45
2022/12/01 13:17:26;;;;;;;7.95;4.68;;;;;;;;;;5089495;28;20027;-45
2022/12/01 13:19:52;;;;;;;11.35;5.95;;;;;;;;;;5095044;28;20082;-45
2022/12/01 13:22:20;;;;;;;9.85;5.20;;;;;;;;;;5079787;28;20024;-45
2022/12/01 13:24:46;;;;;;;11.48;6.00;;;;;;;;;;5091704;28;20424;-48
2022/12/01 13:27:17;;;;;;;8.32;5.65;;;;;;;;;;5091436;28;20102;-45
2022/12/01 13:29:48;;;;;;;11.32;4.78;;;;;;;;;;5091592;28;20373;-45
2022/12/01 13:32:32;;;;;;;8.70;4.68;;;;;;;;;;5091354;28;20032;-45
2022/12/01 13:34:58;;;;;;;7.72;5.20;;;;;;;;;;5083466;28;20024;-45
2022/12/01 13:37:25;;;;;;;7.78;5.30;;;;;;;;;;5091338;28;20016;-47
2022/12/01 13:39:54;;;;;;;8.85;5.05;;;;;;;;;;5090383;28;20028;-45
2022/12/01 13:42:22;;;;;;;8.02;4.47;;;;;;;;;;5090988;28;20074;-45
2022/12/01 13:45:14;;;;;;;10.32;4.43;;;;;;;;;;5102556;28;20526;-46
2022/12/01 13:47:47;;;;;;;7.63;5.20;;;;;;;;;;5091739;28;20065;-46
2022/12/01 13:50:32;;;;;;;10.88;5.25;;;;;;;;;;5097954;28;20036;-45
2022/12/01 13:53:16;;;;;;;9.85;4.55;;;;;;;;;;5090289;28;20024;-45
2022/12/01 13:55:57;;;;;;;7.43;4.20;;;;;;;;;;5090509;28;20416;-46
2022/12/01 13:58:25;;;;;;;7.05;4.10;;;;;;;;;;5081876;28;20018;-45
2022/12/01 14:00:51;;;;;;;8.63;4.78;;;;;;;;;;5093376;28;20051;-45
2022/12/01 14:03:18;;;;;;;8.98;4.53;;;;;;;;;;5099918;28;20493;-45
2022/12/01 14:05:55;;;;;;;7.70;4.43;;;;;;;;;;5090709;28;20035;-47
2022/12/01 14:08:25;;;;;;;9.73;4.25;;;;;;;;;;5083160;28;20027;-45
2022/12/01 14:10:53;;;;;;;6.43;4.50;;;;;;;;;;5084483;28;20117;-46
2022/12/01 14:13:20;;;;;;;7.38;5.10;;;;;;;;;;5088125;28;20024;-45
2022/12/01 14:15:52;;;;;;;8.07;4.53;;;;;;;;;;5088398;28;20103;-48
2022/12/01 14:18:18;;;;;;;7.22;4.72;;;;;;;;;;5094292;28;20516;-45
2022/12/01 14:20:45;;;;;;;6.25;4.30;;;;;;;;;;5091629;28;20041;-45
2022/12/01 14:23:11;;;;;;;11.05;6.72;;;;;;;;;;5090278;28;20027;-45
2022/12/01 14:25:38;;;;;;;8.80;6.28;;;;;;;;;;5091659;28;20028;-45
2022/12/01 14:28:11;;;;;;;8.88;5.40;;;;;;;;;;5090884;28;20447;-45
2022/12/01 14:30:41;;;;;;;6.95;4.43;;;;;;;;;;5082807;28;20028;-45
2022/12/01 14:33:26;;;;;;;6.90;4.78;;;;;;;;;;5090093;28;20183;-45
2022/12/01 14:35:52;;;;;;;8.18;5.18;;;;;;;;;;5089915;28;20028;-45
2022/12/01 14:38:18;;;;;;;9.13;4.68;;;;;;;;;;5090967;28;20019;-46
2022/12/01 14:40:44;;;;;;;7.35;4.35;;;;;;;;;;5090989;28;20066;-47
2022/12/01 14:46:06;;;;;;;7.03;4.22;;;;;;;;;;5086303;28;20228;-45
2022/12/01 14:48:35;;;;;;;7.10;4.55;;;;;;;;;;5085579;28;20078;-45
2022/12/01 14:51:10;;;;;;;6.00;4.90;;;;;;;;;;5089589;28;20036;-45
2022/12/01 14:53:39;;;;;;;7.43;4.20;;;;;;;;;;5087214;28;20070;-45
2022/12/01 14:56:17;;;;;;;6.68;4.32;;;;;;;;;;5091580;28;20081;-45